Time;durP1;ratioP1;P1;durP2;ratioP2;P2;SDS_P1;SDS_P2;PMS_P1;PMS_P2;Temp;Humidity;BMP_temperature;BMP_pressure;BME280_temperature;BME280_humidity;BME280_pressure;Samples;Min_cycle;Max_cycle;Signal;HPM_P1;HPM_P2
2022/04/10 00:00:01;;;;;;;1.60;1.50;;;7.70;99.90;;;;;;5066682;28;21228;-79
2022/04/10 00:02:29;;;;;;;3.07;1.50;;;7.60;99.90;;;;;;5066265;28;20480;-80
2022/04/10 00:04:57;;;;;;;6.00;1.80;;;7.30;99.90;;;;;;5065286;28;20506;-79
2022/04/10 00:07:25;;;;;;;4.60;1.77;;;7.90;99.90;;;;;;5060268;28;20449;-81
2022/04/10 00:09:55;;;;;;;4.40;1.60;;;8.00;99.90;;;;;;5063839;28;20508;-83
2022/04/10 00:12:23;;;;;;;3.07;2.00;;;7.80;99.90;;;;;;5065071;28;20457;-80
2022/04/10 00:14:51;;;;;;;5.40;1.97;;;7.90;99.90;;;;;;5058299;28;20951;-81
2022/04/10 00:17:19;;;;;;;3.93;1.70;;;7.80;99.90;;;;;;5070436;28;20447;-80
2022/04/10 00:19:47;;;;;;;1.83;1.50;;;7.80;99.90;;;;;;5071041;28;20492;-80
2022/04/10 00:22:15;;;;;;;1.90;1.73;;;7.80;99.90;;;;;;5062426;28;20494;-80
2022/04/10 00:24:44;;;;;;;1.53;1.43;;;7.80;99.90;;;;;;5066238;28;20505;-80
2022/04/10 00:27:13;;;;;;;2.50;1.73;;;7.80;99.90;;;;;;5063665;28;20440;-80
2022/04/10 00:29:42;;;;;;;4.63;1.53;;;8.00;99.90;;;;;;5060933;28;20554;-82
2022/04/10 00:32:10;;;;;;;1.70;1.40;;;7.70;99.90;;;;;;5068195;28;20435;-79
2022/04/10 00:34:38;;;;;;;3.37;1.50;;;8.00;99.90;;;;;;5059678;28;20458;-80
2022/04/10 00:37:07;;;;;;;4.53;1.90;;;7.70;99.90;;;;;;5064514;28;20455;-79
2022/04/10 00:39:35;;;;;;;3.67;1.80;;;7.60;99.90;;;;;;5064991;28;20463;-79
2022/04/10 00:42:03;;;;;;;1.90;1.63;;;7.60;99.90;;;;;;5065288;28;20538;-79
2022/04/10 00:44:34;;;;;;;3.60;1.17;;;7.60;99.90;;;;;;5063982;28;20474;-79
2022/04/10 00:47:03;;;;;;;1.57;1.47;;;7.70;99.90;;;;;;5063822;28;20458;-80
2022/04/10 00:49:31;;;;;;;1.60;1.50;;;7.70;99.90;;;;;;5067178;28;20455;-79
2022/04/10 00:52:00;;;;;;;1.93;1.57;;;7.70;99.90;;;;;;5055421;28;20459;-79
2022/04/10 00:54:30;;;;;;;1.40;1.30;;;7.80;99.90;;;;;;5063247;28;20493;-79
2022/04/10 00:57:00;;;;;;;1.73;1.63;;;7.80;99.90;;;;;;5056488;28;20455;-80
2022/04/10 00:59:29;;;;;;;2.80;1.40;;;7.80;99.90;;;;;;5060003;28;20492;-80
2022/04/10 01:01:59;;;;;;;4.20;2.00;;;7.90;99.90;;;;;;5062355;28;20553;-80
2022/04/10 01:04:43;;;;;;;1.30;1.10;;;7.80;99.90;;;;;;5061844;28;20465;-80
2022/04/10 01:07:13;;;;;;;1.90;1.80;;;7.90;99.90;;;;;;5057293;28;20450;-81
2022/04/10 01:09:41;;;;;;;1.50;1.40;;;8.00;99.90;;;;;;5057251;28;20807;-80
2022/04/10 01:12:11;;;;;;;4.00;1.30;;;7.80;99.90;;;;;;5068125;28;20455;-80
2022/04/10 01:14:39;;;;;;;1.60;1.50;;;7.80;99.90;;;;;;5067506;28;20455;-80
2022/04/10 01:17:10;;;;;;;3.60;1.40;;;7.80;99.90;;;;;;5059993;28;20458;-80
2022/04/10 01:19:39;;;;;;;1.90;1.60;;;7.80;99.90;;;;;;5061021;28;20454;-80
2022/04/10 01:22:09;;;;;;;1.93;1.30;;;7.80;99.90;;;;;;5057241;28;20495;-79
2022/04/10 01:24:39;;;;;;;1.47;1.27;;;7.80;99.90;;;;;;5060043;28;20443;-80
2022/04/10 01:27:08;;;;;;;2.00;1.50;;;7.80;99.90;;;;;;5056731;28;20466;-79
2022/04/10 01:29:36;;;;;;;5.10;2.03;;;7.70;99.90;;;;;;5053010;28;20511;-79
2022/04/10 01:32:05;;;;;;;2.97;1.80;;;7.70;99.90;;;;;;5064991;28;20451;-79
2022/04/10 01:34:34;;;;;;;1.67;1.37;;;7.70;99.90;;;;;;5058006;28;20476;-81
2022/04/10 01:37:04;;;;;;;1.93;1.70;;;7.70;99.90;;;;;;5062461;28;20470;-80
2022/04/10 01:39:32;;;;;;;3.10;1.77;;;7.60;99.90;;;;;;5056935;28;20438;-79
2022/04/10 01:42:02;;;;;;;1.90;1.50;;;7.70;99.90;;;;;;5061936;28;20494;-79
2022/04/10 01:44:30;;;;;;;3.67;1.97;;;7.80;99.90;;;;;;5060882;28;20571;-78
2022/04/10 01:46:59;;;;;;;2.37;1.50;;;8.00;99.90;;;;;;5055333;28;20459;-79
2022/04/10 01:49:27;;;;;;;1.73;1.63;;;7.70;99.90;;;;;;5060112;28;20457;-78
2022/04/10 01:51:55;;;;;;;2.33;1.87;;;7.70;99.90;;;;;;5060759;28;20447;-79
2022/04/10 01:54:23;;;;;;;2.73;1.20;;;7.80;99.90;;;;;;5058541;28;20479;-79
2022/04/10 01:56:51;;;;;;;1.90;1.80;;;7.70;99.90;;;;;;5050874;28;20484;-79
2022/04/10 01:59:20;;;;;;;3.20;1.40;;;7.80;99.90;;;;;;5061805;28;20502;-79
2022/04/10 02:01:49;;;;;;;3.30;1.30;;;7.70;99.90;;;;;;5059107;28;20470;-78
2022/04/10 02:04:19;;;;;;;1.93;1.57;;;7.80;99.90;;;;;;5059993;28;20468;-79
2022/04/10 02:06:47;;;;;;;2.30;1.53;;;7.70;99.90;;;;;;5054328;28;20898;-78
2022/04/10 02:09:15;;;;;;;1.53;1.43;;;7.70;99.90;;;;;;5062118;28;20936;-77
2022/04/10 02:11:44;;;;;;;6.83;1.77;;;7.60;99.90;;;;;;5060762;28;20451;-78
2022/04/10 02:14:12;;;;;;;1.47;1.37;;;7.60;99.90;;;;;;5061760;28;20474;-79
2022/04/10 02:16:42;;;;;;;2.90;1.53;;;7.60;99.90;;;;;;5062292;28;20466;-78
2022/04/10 02:19:10;;;;;;;1.50;1.40;;;7.60;99.90;;;;;;5054104;28;20712;-79
2022/04/10 02:21:38;;;;;;;1.90;1.20;;;7.50;99.90;;;;;;5062296;28;20482;-79
2022/04/10 02:24:08;;;;;;;2.43;1.87;;;7.50;99.90;;;;;;5057313;28;20494;-79
2022/04/10 02:26:42;;;;;;;1.90;1.67;;;7.50;99.90;;;;;;5056938;28;20465;-79
2022/04/10 02:29:16;;;;;;;1.47;1.33;;;7.50;99.90;;;;;;5061785;28;20469;-80
2022/04/10 02:31:46;;;;;;;1.20;1.10;;;7.60;99.90;;;;;;5055592;28;20454;-78
2022/04/10 02:34:14;;;;;;;2.17;1.40;;;7.50;99.90;;;;;;5055899;28;20227;-79
2022/04/10 02:36:42;;;;;;;4.70;1.50;;;7.50;99.90;;;;;;5050938;28;20822;-78
2022/04/10 02:39:10;;;;;;;2.33;1.10;;;7.50;99.90;;;;;;5058344;28;20502;-80
2022/04/10 02:41:38;;;;;;;1.50;1.40;;;7.60;99.90;;;;;;5060031;28;20467;-78
2022/04/10 02:44:07;;;;;;;5.37;1.80;;;7.60;99.90;;;;;;5054472;28;20489;-80
2022/04/10 02:46:35;;;;;;;4.27;1.30;;;7.70;99.90;;;;;;5055940;28;20458;-79
2022/04/10 02:49:05;;;;;;;4.60;1.50;;;7.50;99.90;;;;;;5055367;28;20512;-80
2022/04/10 02:51:33;;;;;;;2.33;1.60;;;7.50;99.90;;;;;;5059908;28;20946;-80
2022/04/10 02:54:01;;;;;;;1.80;1.70;;;7.50;99.90;;;;;;5061636;28;20477;-81
2022/04/10 02:56:29;;;;;;;1.47;1.37;;;7.40;99.90;;;;;;5053143;28;20448;-80
2022/04/10 02:58:58;;;;;;;2.10;1.53;;;7.40;99.90;;;;;;5057235;28;20463;-80
2022/04/10 03:01:26;;;;;;;2.80;1.83;;;7.40;99.90;;;;;;5061808;28;20457;-80
2022/04/10 03:03:54;;;;;;;2.67;1.57;;;7.40;99.90;;;;;;5063805;28;20486;-80
2022/04/10 03:06:24;;;;;;;4.30;2.13;;;7.40;99.90;;;;;;5062508;28;20460;-80
2022/04/10 03:08:52;;;;;;;3.07;1.80;;;7.40;99.90;;;;;;5063353;28;20454;-80
2022/04/10 03:11:20;;;;;;;3.70;2.00;;;7.30;99.90;;;;;;5067139;28;20451;-79
2022/04/10 03:13:48;;;;;;;1.67;1.30;;;7.20;99.90;;;;;;5065202;28;20485;-79
2022/04/10 03:16:16;;;;;;;3.27;1.60;;;7.20;99.90;;;;;;5051584;28;20490;-80
2022/04/10 03:18:45;;;;;;;1.50;1.40;;;7.20;99.90;;;;;;5065276;28;20454;-79
2022/04/10 03:21:13;;;;;;;1.90;1.50;;;7.20;99.90;;;;;;5061532;28;20458;-80
2022/04/10 03:23:42;;;;;;;2.93;1.57;;;7.40;99.90;;;;;;5062429;28;21125;-80
2022/04/10 03:26:10;;;;;;;2.07;1.70;;;7.50;99.90;;;;;;5061991;28;20454;-78
2022/04/10 03:28:39;;;;;;;1.90;1.67;;;7.30;99.90;;;;;;5069511;28;20465;-80
2022/04/10 03:31:07;;;;;;;3.37;1.97;;;7.20;99.90;;;;;;5061244;28;20463;-80
2022/04/10 03:33:35;;;;;;;1.50;1.40;;;7.20;99.90;;;;;;5066080;28;20478;-79
2022/04/10 03:36:04;;;;;;;3.37;1.60;;;7.20;99.90;;;;;;5068484;28;20470;-79
2022/04/10 03:38:32;;;;;;;2.27;1.60;;;7.20;99.90;;;;;;5057031;28;20934;-80
2022/04/10 03:41:01;;;;;;;1.93;1.83;;;7.30;99.90;;;;;;5067923;28;20455;-82
2022/04/10 03:43:29;;;;;;;2.27;2.10;;;7.40;99.90;;;;;;5064585;28;20479;-80
2022/04/10 03:45:58;;;;;;;1.77;1.63;;;7.20;99.90;;;;;;5061247;28;20478;-80
2022/04/10 03:48:26;;;;;;;2.97;1.97;;;7.40;99.90;;;;;;5068337;28;20512;-81
2022/04/10 03:50:54;;;;;;;2.57;2.00;;;7.00;99.90;;;;;;5058994;28;20459;-79
2022/04/10 03:53:23;;;;;;;2.97;1.97;;;7.00;99.90;;;;;;5062974;28;20485;-79
2022/04/10 03:55:51;;;;;;;2.57;2.07;;;7.00;99.90;;;;;;5059904;28;20804;-80
2022/04/10 03:58:20;;;;;;;3.20;1.67;;;7.00;99.90;;;;;;5061001;28;20461;-78
2022/04/10 04:00:49;;;;;;;3.70;2.10;;;7.00;99.90;;;;;;5064279;28;20961;-80
2022/04/10 04:03:17;;;;;;;3.60;1.87;;;7.00;99.90;;;;;;5064875;28;20482;-80
2022/04/10 04:05:45;;;;;;;1.93;1.70;;;7.00;99.90;;;;;;5063012;28;20516;-79
2022/04/10 04:08:15;;;;;;;1.60;1.50;;;7.00;99.90;;;;;;5067443;28;20443;-80
2022/04/10 04:10:43;;;;;;;2.00;1.87;;;7.00;99.90;;;;;;5065657;28;20462;-80
2022/04/10 04:13:11;;;;;;;1.70;1.60;;;6.90;99.90;;;;;;5064395;28;20551;-80
2022/04/10 04:15:41;;;;;;;1.90;1.57;;;7.00;99.90;;;;;;5063368;28;20596;-79
2022/04/10 04:18:09;;;;;;;2.03;1.92;;;6.90;99.90;;;;;;5059759;28;20448;-80
2022/04/10 04:20:37;;;;;;;4.05;1.90;;;7.30;99.90;;;;;;5061825;28;20194;-80
2022/04/10 04:23:05;;;;;;;4.47;1.83;;;7.00;99.90;;;;;;5064620;28;21049;-81
2022/04/10 04:25:34;;;;;;;2.27;1.83;;;6.90;99.90;;;;;;5060407;28;20462;-80
2022/04/10 04:28:02;;;;;;;3.43;1.70;;;7.00;99.90;;;;;;5054726;28;20545;-79
2022/04/10 04:30:30;;;;;;;1.70;1.60;;;6.90;99.90;;;;;;5061302;28;20461;-78
2022/04/10 04:33:01;;;;;;;2.03;1.80;;;6.90;99.90;;;;;;5062879;28;21303;-77
2022/04/10 04:35:29;;;;;;;2.13;1.93;;;6.80;99.90;;;;;;5056830;28;20197;-78
2022/04/10 04:37:58;;;;;;;1.90;1.80;;;6.80;99.90;;;;;;5060993;28;20454;-78
2022/04/10 04:40:29;;;;;;;2.17;1.97;;;6.90;99.90;;;;;;5056009;28;20203;-78
2022/04/10 04:42:57;;;;;;;1.97;1.70;;;6.80;99.90;;;;;;5061893;28;20469;-78
2022/04/10 04:45:25;;;;;;;4.18;1.85;;;6.80;99.90;;;;;;5060471;28;21051;-78
2022/04/10 04:47:53;;;;;;;2.20;1.50;;;6.80;99.90;;;;;;5063792;28;20719;-80
2022/04/10 04:50:23;;;;;;;2.72;1.98;;;6.70;99.90;;;;;;5061747;28;20486;-78
2022/04/10 04:52:51;;;;;;;2.30;2.10;;;6.70;99.90;;;;;;5059466;28;20278;-79
2022/04/10 04:55:19;;;;;;;1.80;1.70;;;6.80;99.90;;;;;;5062612;28;20458;-79
2022/04/10 04:57:47;;;;;;;2.10;1.83;;;6.80;99.90;;;;;;5054192;28;20692;-79
2022/04/10 05:00:16;;;;;;;3.38;1.95;;;6.80;99.90;;;;;;5059073;28;20451;-78
2022/04/10 05:02:45;;;;;;;2.30;2.10;;;6.90;99.90;;;;;;5061222;28;20223;-78
2022/04/10 05:05:13;;;;;;;2.03;1.92;;;6.90;99.90;;;;;;5054349;28;20470;-79
2022/04/10 05:07:43;;;;;;;3.43;1.87;;;6.90;99.90;;;;;;5060351;28;20201;-79
2022/04/10 05:10:11;;;;;;;3.10;2.10;;;7.00;99.90;;;;;;5061044;28;20882;-79
2022/04/10 05:12:39;;;;;;;3.30;1.97;;;6.90;99.90;;;;;;5062344;28;20483;-78
2022/04/10 05:15:08;;;;;;;2.40;2.20;;;7.00;99.90;;;;;;5060210;28;21340;-77
2022/04/10 05:17:37;;;;;;;3.73;2.13;;;7.00;99.90;;;;;;5059462;28;20451;-78
2022/04/10 05:20:07;;;;;;;5.60;2.40;;;7.00;99.90;;;;;;5059007;28;22745;-79
2022/04/10 05:22:35;;;;;;;2.00;1.90;;;6.90;99.90;;;;;;5061351;28;20610;-79
2022/04/10 05:25:06;;;;;;;3.00;2.00;;;6.90;99.90;;;;;;5060138;28;20557;-80
2022/04/10 05:27:34;;;;;;;3.67;2.30;;;6.90;99.90;;;;;;5061280;28;20496;-78
2022/04/10 05:30:02;;;;;;;2.90;2.13;;;7.20;99.90;;;;;;5059643;28;20521;-79
2022/04/10 05:32:30;;;;;;;1.90;1.70;;;7.00;99.90;;;;;;5061830;28;21355;-79
2022/04/10 05:34:59;;;;;;;2.90;2.10;;;7.00;99.90;;;;;;5061602;28;20976;-79
2022/04/10 05:37:27;;;;;;;2.50;2.30;;;7.00;99.90;;;;;;5066203;28;20467;-79
2022/04/10 05:39:55;;;;;;;2.70;2.20;;;7.00;99.90;;;;;;5060871;28;20454;-78
2022/04/10 05:42:24;;;;;;;1.70;1.60;;;7.00;99.90;;;;;;5062816;28;20470;-79
2022/04/10 05:44:53;;;;;;;2.20;2.00;;;7.10;99.90;;;;;;5056427;28;20986;-78
2022/04/10 05:47:21;;;;;;;3.30;2.10;;;7.00;99.90;;;;;;5052564;28;20950;-79
2022/04/10 05:49:49;;;;;;;3.40;2.00;;;7.40;99.90;;;;;;5058682;28;20465;-78
2022/04/10 05:52:17;;;;;;;4.03;2.33;;;7.40;99.90;;;;;;5057937;28;20452;-79
2022/04/10 05:54:45;;;;;;;2.03;1.90;;;7.20;99.90;;;;;;5061842;28;20435;-78
2022/04/10 05:57:13;;;;;;;3.77;3.00;;;7.40;99.90;;;;;;5065072;28;20528;-79
2022/04/10 05:59:43;;;;;;;5.10;2.97;;;7.40;99.90;;;;;;5061211;28;20516;-79
2022/04/10 06:02:11;;;;;;;4.80;2.50;;;7.40;99.90;;;;;;5060469;28;20442;-79
2022/04/10 06:04:39;;;;;;;3.80;2.30;;;7.30;99.90;;;;;;5056679;28;20593;-79
2022/04/10 06:07:08;;;;;;;2.53;1.90;;;7.30;99.90;;;;;;5058548;28;20474;-78
2022/04/10 06:09:36;;;;;;;2.90;2.70;;;7.30;99.90;;;;;;5058189;28;20464;-78
2022/04/10 06:12:04;;;;;;;2.40;2.20;;;7.40;99.90;;;;;;5049704;28;20486;-77
2022/04/10 06:14:33;;;;;;;3.03;2.40;;;7.40;99.90;;;;;;5055572;28;20475;-78
2022/04/10 06:17:02;;;;;;;4.63;2.60;;;7.40;99.90;;;;;;5058461;28;20468;-78
2022/04/10 06:19:31;;;;;;;2.47;2.27;;;7.50;99.90;;;;;;5057281;28;20463;-80
2022/04/10 06:21:59;;;;;;;2.80;1.87;;;7.50;99.90;;;;;;5057754;28;20465;-77
2022/04/10 06:24:27;;;;;;;3.30;2.13;;;7.60;99.90;;;;;;5052730;28;20476;-80
2022/04/10 06:26:56;;;;;;;3.60;2.00;;;7.60;99.90;;;;;;5057957;28;20485;-79
2022/04/10 06:29:24;;;;;;;2.75;1.92;;;7.60;99.90;;;;;;5058233;28;20467;-79
2022/04/10 06:31:52;;;;;;;3.73;2.23;;;7.70;99.90;;;;;;5059377;28;20273;-79
2022/04/10 06:34:22;;;;;;;3.97;2.20;;;7.90;99.90;;;;;;5056750;28;20529;-78
2022/04/10 06:36:50;;;;;;;2.73;2.53;;;7.80;99.90;;;;;;5060388;28;21236;-79
2022/04/10 06:39:18;;;;;;;3.23;1.90;;;7.80;99.90;;;;;;5055235;28;20462;-78
2022/04/10 06:41:46;;;;;;;2.77;1.97;;;7.80;99.90;;;;;;5061163;28;20974;-78
2022/04/10 06:44:14;;;;;;;1.93;1.77;;;7.90;99.90;;;;;;5060317;28;20479;-79
2022/04/10 06:46:43;;;;;;;1.80;1.70;;;7.90;99.90;;;;;;5053419;28;20974;-78
2022/04/10 06:49:12;;;;;;;3.50;2.23;;;8.00;99.90;;;;;;5058038;28;20541;-79
2022/04/10 06:51:41;;;;;;;3.03;1.93;;;8.00;99.90;;;;;;5060464;28;20458;-79
2022/04/10 06:54:10;;;;;;;2.40;2.20;;;7.90;99.90;;;;;;5061049;28;20516;-78
2022/04/10 06:56:38;;;;;;;5.13;3.97;;;8.00;99.90;;;;;;5063757;28;20465;-79
2022/04/10 06:59:07;;;;;;;3.70;3.40;;;8.00;99.90;;;;;;5062614;28;20446;-80
2022/04/10 07:01:35;;;;;;;4.17;2.20;;;7.90;99.90;;;;;;5062486;28;20863;-79
2022/04/10 07:04:06;;;;;;;2.77;2.27;;;7.90;99.90;;;;;;5065899;28;20472;-79
2022/04/10 07:06:34;;;;;;;1.80;1.70;;;7.90;99.90;;;;;;5056688;28;20883;-79
2022/04/10 07:09:03;;;;;;;3.23;2.37;;;7.90;99.90;;;;;;5065841;28;20981;-79
2022/04/10 07:11:32;;;;;;;2.87;2.33;;;7.90;99.90;;;;;;5061271;28;21012;-79
2022/04/10 07:14:01;;;;;;;3.43;2.23;;;7.90;99.90;;;;;;5062853;28;20470;-77
2022/04/10 07:16:29;;;;;;;4.00;2.50;;;7.90;99.90;;;;;;5078818;28;20833;-78
2022/04/10 07:18:57;;;;;;;3.50;3.03;;;7.90;99.90;;;;;;5062038;28;20455;-76
2022/04/10 07:24:09;;;;;;;4.07;2.57;;;8.10;99.90;;;;;;5067592;28;21248;-78
2022/04/10 07:26:37;;;;;;;2.20;2.00;;;8.20;99.90;;;;;;5075413;28;20471;-78
2022/04/10 07:29:06;;;;;;;2.97;2.67;;;8.20;99.90;;;;;;5055655;28;20488;-78
2022/04/10 07:31:34;;;;;;;2.73;1.90;;;8.20;99.90;;;;;;5060601;28;20470;-79
2022/04/10 07:34:03;;;;;;;3.10;2.80;;;8.30;99.90;;;;;;5060372;28;20468;-79
2022/04/10 07:36:32;;;;;;;3.90;2.30;;;8.50;99.90;;;;;;5065965;28;20492;-80
2022/04/10 07:39:01;;;;;;;2.10;1.90;;;8.60;99.90;;;;;;5064867;28;20577;-79
2022/04/10 07:41:30;;;;;;;3.83;2.30;;;8.60;99.90;;;;;;5067655;28;20439;-79
2022/04/10 07:43:58;;;;;;;3.83;1.83;;;8.90;99.90;;;;;;5066801;28;20484;-77
2022/04/10 07:49:12;;;;;;;3.20;2.70;;;9.10;99.90;;;;;;5066218;28;20535;-77
2022/04/10 07:51:40;;;;;;;3.07;1.97;;;9.00;99.90;;;;;;5058432;28;20556;-77
2022/04/10 07:54:09;;;;;;;2.63;2.40;;;9.00;99.90;;;;;;5058814;28;20483;-77
2022/04/10 07:56:38;;;;;;;4.57;2.53;;;8.90;99.90;;;;;;5061554;28;20998;-78
2022/04/10 07:59:06;;;;;;;3.10;2.90;;;8.90;99.90;;;;;;5060255;28;20455;-79
2022/04/10 08:01:34;;;;;;;3.37;1.70;;;8.90;99.90;;;;;;5062828;28;20455;-77
2022/04/10 08:04:03;;;;;;;2.73;2.10;;;9.00;99.90;;;;;;5062196;28;20472;-77
2022/04/10 08:06:31;;;;;;;2.90;2.70;;;9.00;99.90;;;;;;5060703;28;21002;-78
2022/04/10 08:08:59;;;;;;;1.80;1.67;;;9.10;99.90;;;;;;5061749;28;20462;-78
2022/04/10 08:11:28;;;;;;;1.90;1.80;;;9.20;99.90;;;;;;5060681;28;20843;-78
2022/04/10 08:13:57;;;;;;;4.40;2.67;;;9.30;99.90;;;;;;5063782;28;20651;-78
2022/04/10 08:16:25;;;;;;;2.93;2.20;;;9.40;99.90;;;;;;5059669;28;20448;-79
2022/04/10 08:18:54;;;;;;;2.27;1.70;;;9.50;99.90;;;;;;5059604;28;20461;-76
2022/04/10 08:21:22;;;;;;;2.00;1.60;;;9.60;99.90;;;;;;5060988;28;20479;-77
2022/04/10 08:23:50;;;;;;;1.70;1.60;;;9.60;99.90;;;;;;5062176;28;20491;-78
2022/04/10 08:26:18;;;;;;;2.57;1.90;;;9.70;99.90;;;;;;5055718;28;20489;-78
2022/04/10 08:28:46;;;;;;;1.90;1.80;;;9.90;99.90;;;;;;5065792;28;20452;-78
2022/04/10 08:31:16;;;;;;;2.97;1.73;;;9.90;99.90;;;;;;5059723;28;21158;-79
2022/04/10 08:33:44;;;;;;;2.33;2.20;;;9.90;99.90;;;;;;5065690;28;20546;-79
2022/04/10 08:36:12;;;;;;;2.77;1.83;;;10.00;99.90;;;;;;5060742;28;20761;-80
2022/04/10 08:38:40;;;;;;;2.27;1.73;;;10.00;97.80;;;;;;5059842;28;20475;-78
2022/04/10 08:41:09;;;;;;;3.30;1.27;;;10.00;91.40;;;;;;5054386;28;20446;-78
2022/04/10 08:43:37;;;;;;;1.57;1.20;;;10.00;91.60;;;;;;5058249;28;20482;-79
2022/04/10 08:46:07;;;;;;;1.63;1.53;;;10.00;91.80;;;;;;5062246;28;20571;-78
2022/04/10 08:48:37;;;;;;;2.70;1.60;;;10.10;88.00;;;;;;5056496;28;20464;-78
2022/04/10 08:51:10;;;;;;;1.60;1.47;;;10.20;80.40;;;;;;5060507;28;20452;-79
2022/04/10 08:53:39;;;;;;;3.23;1.50;;;10.20;92.60;;;;;;5056491;28;20561;-79
2022/04/10 08:56:09;;;;;;;1.93;1.53;;;10.20;72.80;;;;;;5057453;28;20966;-79
2022/04/10 08:58:37;;;;;;;2.17;1.90;;;10.20;73.30;;;;;;5052649;28;20458;-79
2022/04/10 09:01:05;;;;;;;1.87;1.50;;;10.20;68.80;;;;;;5050798;28;20458;-78
2022/04/10 09:03:34;;;;;;;4.60;1.60;;;10.30;71.50;;;;;;5047237;28;20479;-79
2022/04/10 09:06:05;;;;;;;2.10;1.47;;;10.30;68.00;;;;;;5045457;28;20478;-79
2022/04/10 09:08:33;;;;;;;2.30;1.57;;;10.20;62.70;;;;;;5046077;28;20450;-80
2022/04/10 09:11:04;;;;;;;4.33;1.70;;;10.20;55.00;;;;;;5054408;28;20446;-79
2022/04/10 09:13:34;;;;;;;2.00;1.60;;;10.20;53.20;;;;;;5058695;28;20474;-78
2022/04/10 09:16:12;;;;;;;2.20;1.33;;;10.30;47.20;;;;;;5053861;28;20466;-79
2022/04/10 09:18:51;;;;;;;3.47;1.53;;;10.00;42.40;;;;;;5053874;28;20470;-78
2022/04/10 09:21:23;;;;;;;1.70;1.47;;;10.00;38.10;;;;;;5047677;28;20456;-77
2022/04/10 09:23:56;;;;;;;10.40;2.50;;;10.10;40.60;;;;;;5059627;28;20517;-78
2022/04/10 09:26:25;;;;;;;1.90;1.80;;;10.00;40.80;;;;;;5053499;28;20848;-77
2022/04/10 09:28:54;;;;;;;1.47;1.37;;;10.10;36.20;;;;;;5059695;28;20456;-78
2022/04/10 09:31:31;;;;;;;1.40;1.27;;;10.10;37.10;;;;;;5053955;28;20462;-78
2022/04/10 09:34:01;;;;;;;1.93;1.40;;;10.10;36.00;;;;;;5053981;28;20473;-79
2022/04/10 09:36:39;;;;;;;3.00;1.90;;;10.20;36.00;;;;;;5060790;28;20445;-79
2022/04/10 09:39:10;;;;;;;2.60;1.80;;;10.10;34.30;;;;;;5060549;28;20521;-78
2022/04/10 09:41:40;;;;;;;1.83;1.73;;;10.10;32.30;;;;;;5061041;28;20461;-77
2022/04/10 09:44:20;;;;;;;2.63;1.60;;;10.00;33.40;;;;;;5058533;28;20467;-78
2022/04/10 09:46:58;;;;;;;1.80;1.40;;;10.00;35.00;;;;;;5056784;28;20477;-78
2022/04/10 09:49:33;;;;;;;1.83;1.70;;;10.10;35.90;;;;;;5054690;28;20474;-78
2022/04/10 09:52:11;;;;;;;2.70;1.47;;;10.20;33.60;;;;;;5058396;28;20993;-79
2022/04/10 09:54:41;;;;;;;1.40;1.30;;;10.40;31.80;;;;;;5053252;28;20484;-78
2022/04/10 09:57:12;;;;;;;1.40;1.30;;;10.50;31.10;;;;;;5057344;28;21038;-78
2022/04/10 09:59:42;;;;;;;2.80;1.57;;;10.60;34.70;;;;;;5057789;28;20458;-78
2022/04/10 10:02:12;;;;;;;3.90;1.40;;;10.50;26.00;;;;;;5056435;28;21121;-78
2022/04/10 10:04:42;;;;;;;5.43;1.50;;;10.60;28.10;;;;;;5055453;28;20831;-76
2022/04/10 10:07:14;;;;;;;2.10;1.20;;;10.70;24.90;;;;;;5057715;28;20478;-78
2022/04/10 10:09:45;;;;;;;2.70;1.67;;;10.70;21.80;;;;;;5061100;28;20458;-77
2022/04/10 10:12:14;;;;;;;1.90;1.80;;;10.50;29.80;;;;;;5051902;28;20459;-77
2022/04/10 10:14:43;;;;;;;1.70;1.60;;;10.50;39.70;;;;;;5057832;28;20473;-78
2022/04/10 10:17:11;;;;;;;2.00;1.80;;;10.10;51.00;;;;;;5050457;28;20456;-78
2022/04/10 10:19:41;;;;;;;2.90;1.80;;;9.80;60.10;;;;;;5055883;28;20468;-79
2022/04/10 10:22:12;;;;;;;3.33;1.70;;;9.90;70.90;;;;;;5055928;28;20509;-78
2022/04/10 10:24:51;;;;;;;2.93;2.20;;;9.30;84.40;;;;;;5060732;28;20866;-77
2022/04/10 10:27:39;;;;;;;3.20;2.80;;;9.10;92.80;;;;;;5060674;28;20489;-76
2022/04/10 10:30:20;;;;;;;5.70;3.10;;;8.90;95.90;;;;;;5055740;28;20562;-77
2022/04/10 10:32:55;;;;;;;2.80;2.60;;;8.60;95.80;;;;;;5060143;28;21030;-77
2022/04/10 10:35:32;;;;;;;4.30;3.13;;;8.40;98.70;;;;;;5057870;28;20448;-73
2022/04/10 10:38:02;;;;;;;4.00;3.63;;;8.60;99.90;;;;;;5058732;28;20443;-74
2022/04/10 10:40:31;;;;;;;5.03;2.90;;;8.50;99.90;;;;;;5057269;28;20459;-80
2022/04/10 10:43:03;;;;;;;3.30;3.00;;;8.70;99.90;;;;;;5053513;28;20493;-78
2022/04/10 10:45:39;;;;;;;5.20;3.40;;;8.60;99.90;;;;;;5058818;28;20471;-77
2022/04/10 10:48:34;;;;;;;4.13;2.47;;;8.80;99.90;;;;;;5055782;28;20488;-79
2022/04/10 10:51:23;;;;;;;3.20;2.77;;;8.90;92.30;;;;;;5061647;28;20447;-78
2022/04/10 10:53:56;;;;;;;4.50;4.07;;;9.00;96.20;;;;;;5062273;28;21002;-78
2022/04/10 10:56:31;;;;;;;4.17;3.10;;;9.20;99.90;;;;;;5053438;28;20466;-78
2022/04/10 10:59:32;;;;;;;4.80;3.27;;;9.40;99.90;;;;;;5056998;28;20467;-78
2022/04/10 11:02:06;;;;;;;3.27;2.97;;;9.50;77.30;;;;;;5056844;28;20452;-76
2022/04/10 11:04:36;;;;;;;2.10;1.90;;;9.50;71.70;;;;;;5058197;28;20487;-77
2022/04/10 11:07:12;;;;;;;3.40;2.97;;;9.60;87.00;;;;;;5056182;28;20488;-78
2022/04/10 11:09:55;;;;;;;3.17;2.27;;;9.80;82.40;;;;;;5056703;28;20462;-78
2022/04/10 11:12:30;;;;;;;4.50;2.80;;;9.90;68.70;;;;;;5054923;28;20457;-77
2022/04/10 11:15:01;;;;;;;4.10;3.40;;;10.00;80.40;;;;;;5058544;28;20461;-79
2022/04/10 11:17:30;;;;;;;2.80;2.60;;;10.10;92.30;;;;;;5051974;28;20471;-78
2022/04/10 11:20:01;;;;;;;2.90;2.60;;;10.20;91.80;;;;;;5055775;28;20453;-78
2022/04/10 11:22:34;;;;;;;2.90;2.70;;;10.20;94.60;;;;;;5061561;28;20460;-79
2022/04/10 11:25:08;;;;;;;2.53;2.33;;;10.20;96.60;;;;;;5061820;28;20979;-79
2022/04/10 11:27:50;;;;;;;2.67;2.13;;;10.00;99.90;;;;;;5056754;28;20477;-79
2022/04/10 11:30:23;;;;;;;2.57;2.37;;;9.90;99.90;;;;;;5064193;28;20472;-80
2022/04/10 11:32:53;;;;;;;3.07;2.17;;;9.80;99.90;;;;;;5059714;28;20563;-74
2022/04/10 11:35:25;;;;;;;3.57;2.13;;;9.80;99.90;;;;;;5057199;28;20456;-74
2022/04/10 11:37:54;;;;;;;4.33;2.83;;;9.80;99.90;;;;;;5052827;28;20461;-80
2022/04/10 11:40:27;;;;;;;3.97;2.67;;;9.80;99.90;;;;;;5061402;28;20511;-79
2022/04/10 11:42:56;;;;;;;2.90;2.23;;;9.80;99.90;;;;;;5063851;28;20506;-79
2022/04/10 11:45:27;;;;;;;5.33;2.50;;;9.70;99.90;;;;;;5065787;28;20985;-78
2022/04/10 11:48:04;;;;;;;1.93;1.80;;;9.90;99.90;;;;;;5059853;28;20471;-81
2022/04/10 11:50:32;;;;;;;2.40;2.00;;;10.00;99.90;;;;;;5059767;28;20459;-79
2022/04/10 11:53:02;;;;;;;2.80;2.30;;;10.00;99.90;;;;;;5064863;28;20477;-79
2022/04/10 11:55:34;;;;;;;3.10;2.27;;;10.10;99.90;;;;;;5059877;28;20569;-79
2022/04/10 11:58:13;;;;;;;2.30;2.10;;;10.10;99.90;;;;;;5061729;28;20448;-78
2022/04/10 12:00:46;;;;;;;3.20;2.50;;;10.10;97.70;;;;;;5065711;28;20452;-80
2022/04/10 12:03:15;;;;;;;2.63;2.40;;;10.10;76.60;;;;;;5072853;28;20469;-79
2022/04/10 12:05:43;;;;;;;3.13;1.90;;;10.00;80.10;;;;;;5060208;28;21518;-79
2022/04/10 12:08:11;;;;;;;4.53;2.53;;;10.00;87.70;;;;;;5065093;28;21016;-80
2022/04/10 12:10:41;;;;;;;2.20;2.00;;;10.00;80.80;;;;;;5065090;28;20469;-80
2022/04/10 12:13:15;;;;;;;3.90;2.00;;;10.10;94.10;;;;;;5058179;28;20995;-81
2022/04/10 12:15:43;;;;;;;2.40;1.67;;;10.20;97.00;;;;;;5060816;28;21196;-79
2022/04/10 12:18:13;;;;;;;2.73;1.87;;;10.20;96.90;;;;;;5059323;28;20458;-79
2022/04/10 12:20:43;;;;;;;2.80;2.50;;;10.30;91.60;;;;;;5062247;28;20452;-80
2022/04/10 12:23:24;;;;;;;2.40;2.10;;;10.40;96.20;;;;;;5054935;28;20478;-77
2022/04/10 12:25:55;;;;;;;2.30;2.00;;;10.50;95.10;;;;;;5062145;28;20458;-80
2022/04/10 12:28:25;;;;;;;4.30;2.40;;;10.60;96.70;;;;;;5065845;28;20470;-81
2022/04/10 12:30:54;;;;;;;2.47;2.27;;;10.60;96.00;;;;;;5058239;28;20458;-78
2022/04/10 12:33:23;;;;;;;3.10;1.90;;;10.80;89.00;;;;;;5061178;28;20477;-78
2022/04/10 12:35:51;;;;;;;4.00;1.60;;;10.90;84.80;;;;;;5058487;28;20465;-79
2022/04/10 12:38:19;;;;;;;1.60;1.50;;;10.90;69.30;;;;;;5065261;28;21157;-79
2022/04/10 12:40:48;;;;;;;3.17;1.60;;;11.10;55.30;;;;;;5059157;28;20449;-80
2022/04/10 12:43:17;;;;;;;2.47;2.23;;;11.10;47.00;;;;;;5062023;28;20526;-79
2022/04/10 12:45:45;;;;;;;2.40;1.60;;;11.10;45.70;;;;;;5057262;28;20475;-80
2022/04/10 12:48:24;;;;;;;5.83;1.90;;;11.10;48.00;;;;;;5062832;28;20494;-79
2022/04/10 12:51:06;;;;;;;2.20;2.03;;;11.20;49.60;;;;;;5079257;28;20548;-79
2022/04/10 12:53:35;;;;;;;3.03;2.17;;;11.20;42.60;;;;;;5058638;28;20508;-79
2022/04/10 12:56:03;;;;;;;4.33;2.67;;;11.20;49.60;;;;;;5061331;28;20468;-79
2022/04/10 12:58:47;;;;;;;2.10;1.40;;;11.20;46.90;;;;;;5058563;28;20463;-79
2022/04/10 13:01:26;;;;;;;1.70;1.30;;;11.30;39.10;;;;;;5054906;28;20501;-79
2022/04/10 13:03:56;;;;;;;2.93;1.30;;;11.30;34.50;;;;;;5056603;28;21325;-80
2022/04/10 13:06:45;;;;;;;2.20;1.17;;;11.30;32.50;;;;;;5058696;28;20462;-78
2022/04/10 13:09:15;;;;;;;1.60;1.30;;;11.30;31.30;;;;;;5058881;28;21044;-80
2022/04/10 13:11:44;;;;;;;1.60;1.50;;;11.30;34.00;;;;;;5057808;28;20532;-81
2022/04/10 13:14:15;;;;;;;1.57;1.23;;;11.40;36.90;;;;;;5055228;28;20477;-79